地図

経路データ

SID SEASON NUMBER BASIN SUBBASIN NAME ISO_TIME NATURE LAT LON WMO_WIND WMO_PRES WMO_AGENCY TRACK_TYPE DIST2LAND LANDFALL IFLAG USA_AGENCY USA_ATCF_ID USA_LAT USA_LON USA_RECORD USA_STATUS USA_WIND USA_PRES USA_SSHS USA_R34_NE USA_R34_SE USA_R34_SW USA_R34_NW USA_R50_NE USA_R50_SE USA_R50_SW USA_R50_NW USA_R64_NE USA_R64_SE USA_R64_SW USA_R64_NW USA_POCI USA_ROCI USA_RMW USA_EYE TOKYO_LAT TOKYO_LON TOKYO_GRADE TOKYO_WIND TOKYO_PRES TOKYO_R50_DIR TOKYO_R50_LONG TOKYO_R50_SHORT TOKYO_R30_DIR TOKYO_R30_LONG TOKYO_R30_SHORT TOKYO_LAND CMA_LAT CMA_LON CMA_CAT CMA_WIND CMA_PRES HKO_LAT HKO_LON HKO_CAT HKO_WIND HKO_PRES NEWDELHI_LAT NEWDELHI_LON NEWDELHI_GRADE NEWDELHI_WIND NEWDELHI_PRES NEWDELHI_CI NEWDELHI_DP NEWDELHI_POCI REUNION_LAT REUNION_LON REUNION_TYPE REUNION_WIND REUNION_PRES REUNION_TNUM REUNION_CI REUNION_RMW REUNION_R34_NE REUNION_R34_SE REUNION_R34_SW REUNION_R34_NW REUNION_R50_NE REUNION_R50_SE REUNION_R50_SW REUNION_R50_NW REUNION_R64_NE REUNION_R64_SE REUNION_R64_SW REUNION_R64_NW BOM_LAT BOM_LON BOM_TYPE BOM_WIND BOM_PRES BOM_TNUM BOM_CI BOM_RMW BOM_R34_NE BOM_R34_SE BOM_R34_SW BOM_R34_NW BOM_R50_NE BOM_R50_SE BOM_R50_SW BOM_R50_NW BOM_R64_NE BOM_R64_SE BOM_R64_SW BOM_R64_NW BOM_ROCI BOM_POCI BOM_EYE BOM_POS_METHOD BOM_PRES_METHOD NADI_LAT NADI_LON NADI_CAT NADI_WIND NADI_PRES WELLINGTON_LAT WELLINGTON_LON WELLINGTON_WIND WELLINGTON_PRES DS824_LAT DS824_LON DS824_STAGE DS824_WIND DS824_PRES TD9636_LAT TD9636_LON TD9636_STAGE TD9636_WIND TD9636_PRES TD9635_LAT TD9635_LON TD9635_WIND TD9635_PRES TD9635_ROCI NEUMANN_LAT NEUMANN_LON NEUMANN_CLASS NEUMANN_WIND NEUMANN_PRES MLC_LAT MLC_LON MLC_CLASS MLC_WIND MLC_PRES USA_GUST BOM_GUST BOM_GUST_PER REUNION_GUST REUNION_GUST_PER USA_SEAHGT USA_SEARAD_NE USA_SEARAD_SE USA_SEARAD_SW USA_SEARAD_NW STORM_SPEED STORM_DIR
1998353N13113 1998 105 WP MM NOT_NAMED 1998-12-18 18:00:00 NR 12.9000 113.100 main 390 390 O_____________ jtwc_wp WP271998 12.9000 113.100 20 -1 3 21
1998353N13113 1998 105 WP MM NOT_NAMED 1998-12-18 21:00:00 NR 13.0525 113.150 main 401 390 P_____________ WP271998 13.0525 113.150 20 -1 3 17
1998353N13113 1998 105 WP MM NOT_NAMED 1998-12-19 00:00:00 NR 13.2000 113.200 main 402 402 O_____________ jtwc_wp WP271998 13.2000 113.200 20 -1 3 19
1998353N13113 1998 105 WP MM NOT_NAMED 1998-12-19 03:00:00 NR 13.3425 113.250 main 414 414 P_____________ WP271998 13.3425 113.250 25 -1 3 17
1998353N13113 1998 105 WP MM NOT_NAMED 1998-12-19 06:00:00 NR 13.5000 113.300 main 417 417 O_____________ jtwc_wp WP271998 13.5000 113.300 30 -1 3 15
1998353N13113 1998 105 WP MM NOT_NAMED 1998-12-19 09:00:00 NR 13.6775 113.343 main 421 421 P_____________ WP271998 13.6775 113.343 30 -1 4 13
1998353N13113 1998 105 WP MM NOT_NAMED 1998-12-19 12:00:00 NR 13.9000 113.400 main 436 436 O_____________ jtwc_wp WP271998 13.9000 113.400 30 -1 5 16
1998353N13113 1998 105 WP MM NOT_NAMED 1998-12-19 15:00:00 NR 14.1625 113.485 main 454 454 P_____________ WP271998 14.1625 113.485 30 -1 6 18
1998353N13113 1998 105 WP MM NOT_NAMED 1998-12-19 18:00:00 NR 14.5000 113.600 main 468 468 O_____________ jtwc_wp WP271998 14.5000 113.600 30 -1 8 18
1998353N13113 1998 105 WP MM NOT_NAMED 1998-12-19 21:00:00 NR 14.9275 113.742 main 487 487 P_____________ WP271998 14.9275 113.742 30 -1 10 18
1998353N13113 1998 105 WP MM NOT_NAMED 1998-12-20 00:00:00 NR 15.4000 113.900 main 521 500 O_____________ jtwc_wp WP271998 15.4000 113.900 30 -1 10 17
1998353N13113 1998 105 WP MM NOT_NAMED 1998-12-20 03:00:00 NR 15.8575 114.043 main 493 480 P_____________ WP271998 15.8575 114.043 30 -1 10 18
1998353N13113 1998 105 WP MM NOT_NAMED 1998-12-20 06:00:00 NR 16.3000 114.200 main 481 471 O_____________ jtwc_wp WP271998 16.3000 114.200 30 -1 9 22
1998353N13113 1998 105 WP MM NOT_NAMED 1998-12-20 09:00:00 NR 16.7075 114.393 main 475 468 P_____________ WP271998 16.7075 114.393 30 -1 9 26
1998353N13113 1998 105 WP MM NOT_NAMED 1998-12-20 12:00:00 NR 17.1000 114.600 main 471 461 O_____________ jtwc_wp WP271998 17.1000 114.600 30 -1 9 26
1998353N13113 1998 105 WP MM NOT_NAMED 1998-12-20 15:00:00 NR 17.5225 114.807 main 464 457 P_____________ WP271998 17.5225 114.807 30 -1 9 26
1998353N13113 1998 105 WP MM NOT_NAMED 1998-12-20 18:00:00 NR 17.9000 115.000 main 462 457 O_____________ jtwc_wp WP271998 17.9000 115.000 30 -1 7 26
1998353N13113 1998 105 WP MM NOT_NAMED 1998-12-20 21:00:00 NR 18.1799 115.150 main 468 448 P_____________ WP271998 18.1799 115.150 27 -1 6 30
1998353N13113 1998 105 WP MM NOT_NAMED 1998-12-21 00:00:00 NR 18.4000 115.300 main 448 429 O_____________ jtwc_wp WP271998 18.4000 115.300 25 -1 5 37
1998353N13113 1998 105 WP MM NOT_NAMED 1998-12-21 03:00:00 NR 18.6150 115.493 main 432 414 P_____________ WP271998 18.6150 115.493 25 -1 6 43
1998353N13113 1998 105 WP MM NOT_NAMED 1998-12-21 06:00:00 NR 18.8000 115.700 main 417 411 O_____________ jtwc_wp WP271998 18.8000 115.700 25 -1 5 48
1998353N13113 1998 105 WP MM NOT_NAMED 1998-12-21 09:00:00 NR 18.9575 115.893 main 404 397 P_____________ WP271998 18.9575 115.893 25 -1 5 51
1998353N13113 1998 105 WP MM NOT_NAMED 1998-12-21 12:00:00 NR 19.1000 116.100 main 400 392 O_____________ jtwc_wp WP271998 19.1000 116.100 25 -1 5 55
1998353N13113 1998 105 WP MM NOT_NAMED 1998-12-21 15:00:00 NR 19.2500 116.335 main 394 376 P_____________ WP271998 19.2500 116.335 25 -1 6 57
1998353N13113 1998 105 WP MM NOT_NAMED 1998-12-21 18:00:00 NR 19.4000 116.600 main 378 369 O_____________ jtwc_wp WP271998 19.4000 116.600 25 -1 6 60
1998353N13113 1998 105 WP MM NOT_NAMED 1998-12-21 21:00:00 NR 19.5501 116.892 main 364 361 P_____________ WP271998 19.5501 116.892 22 -1 6 62
1998353N13113 1998 105 WP MM NOT_NAMED 1998-12-22 00:00:00 NR 19.7000 117.200 main 364 O_____________ jtwc_wp WP271998 19.7000 117.200 20 -1 7 63

デジタル台風データ・検索

IBTrACS Databaseについて

本データベースは、米国NOAAが公開する1842年以降の世界の熱帯低気圧のベストトラックデータアーカイブInternational Best Track Archive for Climate Stewardship (IBTrACS)を、ウェブで閲覧しやすい形式に変換したものです。

最終更新日:2021-10-19